sensor_id;sensor_type;location;lat;lon;timestamp;P1;durP1;ratioP1;P2;durP2;ratioP2
19024;SDS011;9645;51.448;6.260;2023-05-19T00:01:22;12.98;;;4.50;;
19024;SDS011;9645;51.448;6.260;2023-05-19T00:03:50;10.48;;;3.72;;
19024;SDS011;9645;51.448;6.260;2023-05-19T00:06:22;7.65;;;3.50;;
19024;SDS011;9645;51.448;6.260;2023-05-19T00:08:54;7.95;;;3.58;;
19024;SDS011;9645;51.448;6.260;2023-05-19T00:11:23;8.35;;;4.07;;
19024;SDS011;9645;51.448;6.260;2023-05-19T00:13:51;9.00;;;4.18;;
19024;SDS011;9645;51.448;6.260;2023-05-19T00:16:19;9.75;;;3.85;;
19024;SDS011;9645;51.448;6.260;2023-05-19T00:18:48;8.90;;;4.35;;
19024;SDS011;9645;51.448;6.260;2023-05-19T00:21:15;11.07;;;4.35;;
19024;SDS011;9645;51.448;6.260;2023-05-19T00:23:43;15.27;;;3.83;;
19024;SDS011;9645;51.448;6.260;2023-05-19T00:26:10;9.80;;;4.30;;
19024;SDS011;9645;51.448;6.260;2023-05-19T00:28:37;12.90;;;4.72;;
19024;SDS011;9645;51.448;6.260;2023-05-19T00:31:04;11.27;;;4.70;;
19024;SDS011;9645;51.448;6.260;2023-05-19T00:33:32;9.50;;;4.20;;
19024;SDS011;9645;51.448;6.260;2023-05-19T00:36:01;11.63;;;4.15;;
19024;SDS011;9645;51.448;6.260;2023-05-19T00:38:29;8.88;;;4.22;;
19024;SDS011;9645;51.448;6.260;2023-05-19T00:40:57;13.77;;;4.22;;
19024;SDS011;9645;51.448;6.260;2023-05-19T00:43:24;11.63;;;5.55;;
19024;SDS011;9645;51.448;6.260;2023-05-19T00:45:51;10.75;;;4.45;;
19024;SDS011;9645;51.448;6.260;2023-05-19T00:48:18;7.20;;;4.35;;
19024;SDS011;9645;51.448;6.260;2023-05-19T00:50:46;12.88;;;4.22;;
19024;SDS011;9645;51.448;6.260;2023-05-19T00:53:16;13.32;;;4.78;;
19024;SDS011;9645;51.448;6.260;2023-05-19T00:55:43;8.02;;;4.50;;
19024;SDS011;9645;51.448;6.260;2023-05-19T00:58:11;14.05;;;4.65;;
19024;SDS011;9645;51.448;6.260;2023-05-19T01:00:39;10.65;;;4.22;;
19024;SDS011;9645;51.448;6.260;2023-05-19T01:03:06;9.48;;;4.50;;
19024;SDS011;9645;51.448;6.260;2023-05-19T01:05:37;11.20;;;5.55;;
19024;SDS011;9645;51.448;6.260;2023-05-19T01:08:05;7.53;;;4.30;;
19024;SDS011;9645;51.448;6.260;2023-05-19T01:10:34;11.95;;;4.95;;
19024;SDS011;9645;51.448;6.260;2023-05-19T01:13:01;12.73;;;4.45;;
19024;SDS011;9645;51.448;6.260;2023-05-19T01:15:28;11.15;;;5.00;;
19024;SDS011;9645;51.448;6.260;2023-05-19T01:17:59;9.38;;;4.70;;
19024;SDS011;9645;51.448;6.260;2023-05-19T01:20:37;19.17;;;4.75;;
19024;SDS011;9645;51.448;6.260;2023-05-19T01:26:18;11.80;;;5.43;;
19024;SDS011;9645;51.448;6.260;2023-05-19T01:31:57;14.82;;;5.05;;
19024;SDS011;9645;51.448;6.260;2023-05-19T01:34:25;12.48;;;4.90;;
19024;SDS011;9645;51.448;6.260;2023-05-19T01:36:53;10.65;;;4.93;;
19024;SDS011;9645;51.448;6.260;2023-05-19T01:39:21;14.18;;;5.25;;
19024;SDS011;9645;51.448;6.260;2023-05-19T01:41:48;13.43;;;4.88;;
19024;SDS011;9645;51.448;6.260;2023-05-19T01:44:16;18.90;;;6.30;;
19024;SDS011;9645;51.448;6.260;2023-05-19T01:46:44;14.13;;;5.90;;
19024;SDS011;9645;51.448;6.260;2023-05-19T01:49:12;12.93;;;5.20;;
19024;SDS011;9645;51.448;6.260;2023-05-19T01:51:39;10.30;;;4.70;;
19024;SDS011;9645;51.448;6.260;2023-05-19T01:54:06;16.25;;;4.90;;
19024;SDS011;9645;51.448;6.260;2023-05-19T01:56:37;17.90;;;5.68;;
19024;SDS011;9645;51.448;6.260;2023-05-19T01:59:15;13.27;;;4.97;;
19024;SDS011;9645;51.448;6.260;2023-05-19T02:01:50;13.10;;;4.82;;
19024;SDS011;9645;51.448;6.260;2023-05-19T02:04:22;15.65;;;4.60;;
19024;SDS011;9645;51.448;6.260;2023-05-19T02:06:56;16.15;;;5.95;;
19024;SDS011;9645;51.448;6.260;2023-05-19T02:09:30;17.83;;;4.93;;
19024;SDS011;9645;51.448;6.260;2023-05-19T02:12:05;13.70;;;5.68;;
19024;SDS011;9645;51.448;6.260;2023-05-19T02:14:40;18.05;;;6.40;;
19024;SDS011;9645;51.448;6.260;2023-05-19T02:17:10;17.55;;;5.45;;
19024;SDS011;9645;51.448;6.260;2023-05-19T02:19:41;15.70;;;5.78;;
19024;SDS011;9645;51.448;6.260;2023-05-19T02:22:09;9.32;;;5.63;;
19024;SDS011;9645;51.448;6.260;2023-05-19T02:24:35;19.20;;;6.38;;
19024;SDS011;9645;51.448;6.260;2023-05-19T02:27:03;13.27;;;4.95;;
19024;SDS011;9645;51.448;6.260;2023-05-19T02:29:31;11.38;;;5.90;;
19024;SDS011;9645;51.448;6.260;2023-05-19T02:31:59;13.70;;;6.22;;
19024;SDS011;9645;51.448;6.260;2023-05-19T02:34:26;10.77;;;5.55;;
19024;SDS011;9645;51.448;6.260;2023-05-19T02:36:55;13.82;;;5.97;;
19024;SDS011;9645;51.448;6.260;2023-05-19T02:39:22;13.00;;;6.15;;
19024;SDS011;9645;51.448;6.260;2023-05-19T02:41:48;11.50;;;6.00;;
19024;SDS011;9645;51.448;6.260;2023-05-19T02:44:16;12.50;;;5.88;;
19024;SDS011;9645;51.448;6.260;2023-05-19T02:46:43;15.65;;;5.57;;
19024;SDS011;9645;51.448;6.260;2023-05-19T02:49:10;12.20;;;6.03;;
19024;SDS011;9645;51.448;6.260;2023-05-19T02:51:37;17.30;;;6.45;;
19024;SDS011;9645;51.448;6.260;2023-05-19T02:54:06;23.67;;;6.53;;
19024;SDS011;9645;51.448;6.260;2023-05-19T02:56:33;16.10;;;6.20;;
19024;SDS011;9645;51.448;6.260;2023-05-19T02:58:59;13.07;;;6.38;;
19024;SDS011;9645;51.448;6.260;2023-05-19T03:01:27;14.45;;;6.22;;
19024;SDS011;9645;51.448;6.260;2023-05-19T03:03:54;18.38;;;6.97;;
19024;SDS011;9645;51.448;6.260;2023-05-19T03:06:21;17.55;;;6.68;;
19024;SDS011;9645;51.448;6.260;2023-05-19T03:08:48;19.05;;;6.88;;
19024;SDS011;9645;51.448;6.260;2023-05-19T03:11:17;14.63;;;6.28;;
19024;SDS011;9645;51.448;6.260;2023-05-19T03:13:44;17.38;;;6.53;;
19024;SDS011;9645;51.448;6.260;2023-05-19T03:16:11;14.57;;;6.03;;
19024;SDS011;9645;51.448;6.260;2023-05-19T03:18:38;14.18;;;6.75;;
19024;SDS011;9645;51.448;6.260;2023-05-19T03:21:05;15.68;;;6.53;;
19024;SDS011;9645;51.448;6.260;2023-05-19T03:23:33;19.27;;;6.75;;
19024;SDS011;9645;51.448;6.260;2023-05-19T03:26:00;17.70;;;6.05;;
19024;SDS011;9645;51.448;6.260;2023-05-19T03:28:29;13.77;;;5.82;;
19024;SDS011;9645;51.448;6.260;2023-05-19T03:30:56;16.42;;;6.72;;
19024;SDS011;9645;51.448;6.260;2023-05-19T03:33:23;13.82;;;7.20;;
19024;SDS011;9645;51.448;6.260;2023-05-19T03:35:52;14.73;;;6.50;;
19024;SDS011;9645;51.448;6.260;2023-05-19T03:38:19;14.00;;;6.07;;
19024;SDS011;9645;51.448;6.260;2023-05-19T03:40:46;12.45;;;6.15;;
19024;SDS011;9645;51.448;6.260;2023-05-19T03:43:13;17.45;;;7.15;;
19024;SDS011;9645;51.448;6.260;2023-05-19T03:45:42;26.52;;;6.72;;
19024;SDS011;9645;51.448;6.260;2023-05-19T03:48:09;19.33;;;6.68;;
19024;SDS011;9645;51.448;6.260;2023-05-19T03:50:36;13.27;;;7.20;;
19024;SDS011;9645;51.448;6.260;2023-05-19T03:53:03;12.63;;;6.65;;
19024;SDS011;9645;51.448;6.260;2023-05-19T03:55:30;16.05;;;6.45;;
19024;SDS011;9645;51.448;6.260;2023-05-19T03:57:58;13.77;;;6.47;;
19024;SDS011;9645;51.448;6.260;2023-05-19T04:00:25;14.25;;;7.40;;
19024;SDS011;9645;51.448;6.260;2023-05-19T04:02:53;15.57;;;6.75;;
19024;SDS011;9645;51.448;6.260;2023-05-19T04:05:20;11.55;;;6.43;;
19024;SDS011;9645;51.448;6.260;2023-05-19T04:07:47;13.80;;;7.22;;
19024;SDS011;9645;51.448;6.260;2023-05-19T04:10:15;17.80;;;7.00;;
19024;SDS011;9645;51.448;6.260;2023-05-19T04:12:42;17.30;;;6.95;;
19024;SDS011;9645;51.448;6.260;2023-05-19T04:15:10;27.17;;;7.20;;
19024;SDS011;9645;51.448;6.260;2023-05-19T04:17:37;15.02;;;8.43;;
19024;SDS011;9645;51.448;6.260;2023-05-19T04:20:06;16.30;;;7.38;;
19024;SDS011;9645;51.448;6.260;2023-05-19T04:22:34;15.90;;;7.65;;
19024;SDS011;9645;51.448;6.260;2023-05-19T04:25:01;18.02;;;5.97;;
19024;SDS011;9645;51.448;6.260;2023-05-19T04:27:29;13.93;;;6.97;;
19024;SDS011;9645;51.448;6.260;2023-05-19T04:30:00;19.67;;;7.57;;
19024;SDS011;9645;51.448;6.260;2023-05-19T04:32:32;19.77;;;7.03;;
19024;SDS011;9645;51.448;6.260;2023-05-19T04:35:01;14.15;;;6.70;;
19024;SDS011;9645;51.448;6.260;2023-05-19T04:37:30;16.52;;;7.07;;
19024;SDS011;9645;51.448;6.260;2023-05-19T04:40:01;18.42;;;7.20;;
19024;SDS011;9645;51.448;6.260;2023-05-19T04:42:30;25.38;;;7.03;;
19024;SDS011;9645;51.448;6.260;2023-05-19T04:44:57;16.63;;;7.13;;
19024;SDS011;9645;51.448;6.260;2023-05-19T04:47:25;14.70;;;7.13;;
19024;SDS011;9645;51.448;6.260;2023-05-19T04:49:52;22.60;;;8.18;;
19024;SDS011;9645;51.448;6.260;2023-05-19T04:52:19;18.83;;;7.85;;
19024;SDS011;9645;51.448;6.260;2023-05-19T04:54:48;13.75;;;7.05;;
19024;SDS011;9645;51.448;6.260;2023-05-19T04:57:15;19.65;;;7.70;;
19024;SDS011;9645;51.448;6.260;2023-05-19T04:59:42;22.48;;;8.45;;
19024;SDS011;9645;51.448;6.260;2023-05-19T05:02:10;19.10;;;7.85;;
19024;SDS011;9645;51.448;6.260;2023-05-19T05:04:37;28.92;;;8.23;;
19024;SDS011;9645;51.448;6.260;2023-05-19T05:07:07;15.07;;;7.07;;
19024;SDS011;9645;51.448;6.260;2023-05-19T05:09:34;21.88;;;8.23;;
19024;SDS011;9645;51.448;6.260;2023-05-19T05:12:03;19.17;;;7.65;;
19024;SDS011;9645;51.448;6.260;2023-05-19T05:14:32;23.63;;;7.72;;
19024;SDS011;9645;51.448;6.260;2023-05-19T05:17:00;21.63;;;8.18;;
19024;SDS011;9645;51.448;6.260;2023-05-19T05:19:27;16.98;;;8.00;;
19024;SDS011;9645;51.448;6.260;2023-05-19T05:21:55;16.98;;;7.93;;
19024;SDS011;9645;51.448;6.260;2023-05-19T05:24:22;18.17;;;7.30;;
19024;SDS011;9645;51.448;6.260;2023-05-19T05:26:50;23.88;;;7.40;;
19024;SDS011;9645;51.448;6.260;2023-05-19T05:29:19;20.77;;;7.60;;
19024;SDS011;9645;51.448;6.260;2023-05-19T05:31:46;17.25;;;7.20;;
19024;SDS011;9645;51.448;6.260;2023-05-19T05:34:13;18.10;;;7.88;;
19024;SDS011;9645;51.448;6.260;2023-05-19T05:36:40;16.70;;;8.13;;
19024;SDS011;9645;51.448;6.260;2023-05-19T05:39:07;23.52;;;6.97;;
19024;SDS011;9645;51.448;6.260;2023-05-19T05:41:34;13.10;;;7.45;;
19024;SDS011;9645;51.448;6.260;2023-05-19T05:44:03;13.65;;;7.25;;
19024;SDS011;9645;51.448;6.260;2023-05-19T05:46:33;13.05;;;6.70;;
19024;SDS011;9645;51.448;6.260;2023-05-19T05:49:00;26.92;;;6.72;;
19024;SDS011;9645;51.448;6.260;2023-05-19T05:51:28;18.35;;;6.90;;
19024;SDS011;9645;51.448;6.260;2023-05-19T05:53:57;14.35;;;7.30;;
19024;SDS011;9645;51.448;6.260;2023-05-19T05:56:26;17.88;;;6.95;;
19024;SDS011;9645;51.448;6.260;2023-05-19T05:58:53;16.83;;;7.05;;
19024;SDS011;9645;51.448;6.260;2023-05-19T06:01:20;21.10;;;7.75;;
19024;SDS011;9645;51.448;6.260;2023-05-19T06:03:49;16.17;;;6.88;;
19024;SDS011;9645;51.448;6.260;2023-05-19T06:06:16;15.80;;;5.85;;
19024;SDS011;9645;51.448;6.260;2023-05-19T06:08:43;14.10;;;7.05;;
19024;SDS011;9645;51.448;6.260;2023-05-19T06:11:11;15.90;;;7.13;;
19024;SDS011;9645;51.448;6.260;2023-05-19T06:13:38;12.30;;;6.40;;
19024;SDS011;9645;51.448;6.260;2023-05-19T06:16:06;14.53;;;6.37;;
19024;SDS011;9645;51.448;6.260;2023-05-19T06:18:33;14.50;;;7.00;;
19024;SDS011;9645;51.448;6.260;2023-05-19T06:21:02;14.30;;;6.90;;
19024;SDS011;9645;51.448;6.260;2023-05-19T06:23:30;16.50;;;7.23;;
19024;SDS011;9645;51.448;6.260;2023-05-19T06:25:57;18.03;;;6.70;;
19024;SDS011;9645;51.448;6.260;2023-05-19T06:28:24;17.03;;;6.77;;
19024;SDS011;9645;51.448;6.260;2023-05-19T06:30:51;18.77;;;7.93;;
19024;SDS011;9645;51.448;6.260;2023-05-19T06:33:18;16.47;;;6.93;;
19024;SDS011;9645;51.448;6.260;2023-05-19T06:35:46;14.13;;;6.43;;
19024;SDS011;9645;51.448;6.260;2023-05-19T06:38:14;13.37;;;6.63;;
19024;SDS011;9645;51.448;6.260;2023-05-19T06:40:41;18.30;;;5.67;;
19024;SDS011;9645;51.448;6.260;2023-05-19T06:43:08;13.47;;;6.17;;
19024;SDS011;9645;51.448;6.260;2023-05-19T06:45:35;16.80;;;6.10;;
19024;SDS011;9645;51.448;6.260;2023-05-19T06:48:02;13.13;;;6.40;;
19024;SDS011;9645;51.448;6.260;2023-05-19T06:50:30;13.60;;;6.20;;
19024;SDS011;9645;51.448;6.260;2023-05-19T06:52:57;16.27;;;5.70;;
19024;SDS011;9645;51.448;6.260;2023-05-19T06:55:26;15.40;;;5.90;;
19024;SDS011;9645;51.448;6.260;2023-05-19T06:57:53;11.93;;;5.90;;
19024;SDS011;9645;51.448;6.260;2023-05-19T07:00:20;15.67;;;6.03;;
19024;SDS011;9645;51.448;6.260;2023-05-19T07:02:48;17.53;;;5.43;;
19024;SDS011;9645;51.448;6.260;2023-05-19T07:05:15;20.27;;;5.47;;
19024;SDS011;9645;51.448;6.260;2023-05-19T07:07:46;11.73;;;6.00;;
19024;SDS011;9645;51.448;6.260;2023-05-19T07:10:13;17.80;;;5.37;;
19024;SDS011;9645;51.448;6.260;2023-05-19T07:12:42;26.50;;;5.53;;
19024;SDS011;9645;51.448;6.260;2023-05-19T07:15:09;16.50;;;5.70;;
19024;SDS011;9645;51.448;6.260;2023-05-19T07:17:40;8.77;;;4.83;;
19024;SDS011;9645;51.448;6.260;2023-05-19T07:20:08;12.60;;;5.43;;
19024;SDS011;9645;51.448;6.260;2023-05-19T07:22:36;9.90;;;5.50;;
19024;SDS011;9645;51.448;6.260;2023-05-19T07:25:04;15.87;;;5.37;;
19024;SDS011;9645;51.448;6.260;2023-05-19T07:27:32;9.50;;;4.70;;
19024;SDS011;9645;51.448;6.260;2023-05-19T07:30:01;7.83;;;4.60;;
19024;SDS011;9645;51.448;6.260;2023-05-19T07:32:29;13.20;;;4.67;;
19024;SDS011;9645;51.448;6.260;2023-05-19T07:34:56;12.10;;;4.93;;
19024;SDS011;9645;51.448;6.260;2023-05-19T07:37:23;14.00;;;5.03;;
19024;SDS011;9645;51.448;6.260;2023-05-19T07:39:51;10.30;;;4.93;;
19024;SDS011;9645;51.448;6.260;2023-05-19T07:42:18;12.43;;;4.90;;
19024;SDS011;9645;51.448;6.260;2023-05-19T07:44:45;17.30;;;4.40;;
19024;SDS011;9645;51.448;6.260;2023-05-19T07:47:13;10.13;;;4.50;;
19024;SDS011;9645;51.448;6.260;2023-05-19T07:49:40;9.10;;;4.60;;
19024;SDS011;9645;51.448;6.260;2023-05-19T07:52:07;11.30;;;4.50;;
19024;SDS011;9645;51.448;6.260;2023-05-19T07:54:36;9.07;;;4.40;;
19024;SDS011;9645;51.448;6.260;2023-05-19T07:57:05;10.83;;;3.57;;
19024;SDS011;9645;51.448;6.260;2023-05-19T07:59:32;9.67;;;4.80;;
19024;SDS011;9645;51.448;6.260;2023-05-19T08:02:00;20.60;;;5.10;;
19024;SDS011;9645;51.448;6.260;2023-05-19T08:04:28;13.37;;;4.80;;
19024;SDS011;9645;51.448;6.260;2023-05-19T08:06:55;10.90;;;4.67;;
19024;SDS011;9645;51.448;6.260;2023-05-19T08:09:22;15.87;;;4.97;;
19024;SDS011;9645;51.448;6.260;2023-05-19T08:11:49;15.07;;;4.80;;
19024;SDS011;9645;51.448;6.260;2023-05-19T08:14:16;7.00;;;4.30;;
19024;SDS011;9645;51.448;6.260;2023-05-19T08:16:46;13.30;;;5.00;;
19024;SDS011;9645;51.448;6.260;2023-05-19T08:20:28;13.23;;;4.80;;
19024;SDS011;9645;51.448;6.260;2023-05-19T08:22:55;20.33;;;4.63;;
19024;SDS011;9645;51.448;6.260;2023-05-19T08:25:22;12.27;;;4.63;;
19024;SDS011;9645;51.448;6.260;2023-05-19T08:27:49;17.50;;;4.70;;
19024;SDS011;9645;51.448;6.260;2023-05-19T08:30:17;13.80;;;5.00;;
19024;SDS011;9645;51.448;6.260;2023-05-19T08:32:44;10.47;;;4.10;;
19024;SDS011;9645;51.448;6.260;2023-05-19T08:35:12;16.73;;;4.80;;
19024;SDS011;9645;51.448;6.260;2023-05-19T08:37:41;8.27;;;4.40;;
19024;SDS011;9645;51.448;6.260;2023-05-19T08:40:09;11.80;;;4.70;;
19024;SDS011;9645;51.448;6.260;2023-05-19T08:42:42;9.80;;;4.40;;
19024;SDS011;9645;51.448;6.260;2023-05-19T08:45:09;10.33;;;3.90;;
19024;SDS011;9645;51.448;6.260;2023-05-19T08:47:37;11.50;;;3.40;;
19024;SDS011;9645;51.448;6.260;2023-05-19T08:50:06;11.27;;;4.07;;
19024;SDS011;9645;51.448;6.260;2023-05-19T08:52:39;7.27;;;4.00;;
19024;SDS011;9645;51.448;6.260;2023-05-19T08:55:14;9.47;;;3.80;;
19024;SDS011;9645;51.448;6.260;2023-05-19T08:57:50;7.37;;;3.83;;
19024;SDS011;9645;51.448;6.260;2023-05-19T09:00:17;6.77;;;4.10;;
19024;SDS011;9645;51.448;6.260;2023-05-19T09:02:45;8.93;;;3.87;;
19024;SDS011;9645;51.448;6.260;2023-05-19T09:05:14;9.83;;;3.80;;
19024;SDS011;9645;51.448;6.260;2023-05-19T09:07:43;8.10;;;3.90;;
19024;SDS011;9645;51.448;6.260;2023-05-19T09:10:12;7.10;;;3.03;;
19024;SDS011;9645;51.448;6.260;2023-05-19T09:12:40;11.10;;;4.20;;
19024;SDS011;9645;51.448;6.260;2023-05-19T09:15:10;4.10;;;3.20;;
19024;SDS011;9645;51.448;6.260;2023-05-19T09:17:37;8.70;;;2.90;;
19024;SDS011;9645;51.448;6.260;2023-05-19T09:20:05;6.30;;;3.60;;
19024;SDS011;9645;51.448;6.260;2023-05-19T09:22:39;9.07;;;3.47;;
19024;SDS011;9645;51.448;6.260;2023-05-19T09:25:17;7.23;;;2.80;;
19024;SDS011;9645;51.448;6.260;2023-05-19T09:27:45;9.60;;;2.73;;
19024;SDS011;9645;51.448;6.260;2023-05-19T09:30:14;8.00;;;2.90;;
19024;SDS011;9645;51.448;6.260;2023-05-19T09:32:42;8.10;;;3.17;;
19024;SDS011;9645;51.448;6.260;2023-05-19T09:35:09;8.20;;;3.10;;
19024;SDS011;9645;51.448;6.260;2023-05-19T09:37:38;8.43;;;3.60;;
19024;SDS011;9645;51.448;6.260;2023-05-19T09:40:06;8.00;;;3.37;;
19024;SDS011;9645;51.448;6.260;2023-05-19T09:42:37;5.67;;;3.00;;
19024;SDS011;9645;51.448;6.260;2023-05-19T09:45:05;4.83;;;3.17;;
19024;SDS011;9645;51.448;6.260;2023-05-19T09:47:33;9.67;;;3.70;;
19024;SDS011;9645;51.448;6.260;2023-05-19T09:50:03;7.83;;;3.50;;
19024;SDS011;9645;51.448;6.260;2023-05-19T09:52:33;13.53;;;3.10;;
19024;SDS011;9645;51.448;6.260;2023-05-19T09:55:01;8.93;;;3.57;;
19024;SDS011;9645;51.448;6.260;2023-05-19T09:57:32;12.27;;;4.60;;
19024;SDS011;9645;51.448;6.260;2023-05-19T10:00:03;9.80;;;3.37;;
19024;SDS011;9645;51.448;6.260;2023-05-19T10:02:39;13.70;;;3.93;;
19024;SDS011;9645;51.448;6.260;2023-05-19T10:05:10;9.67;;;2.80;;
19024;SDS011;9645;51.448;6.260;2023-05-19T10:07:41;17.57;;;3.73;;
19024;SDS011;9645;51.448;6.260;2023-05-19T10:10:10;7.57;;;2.97;;
19024;SDS011;9645;51.448;6.260;2023-05-19T10:12:38;6.07;;;2.70;;
19024;SDS011;9645;51.448;6.260;2023-05-19T10:15:11;20.37;;;3.60;;
19024;SDS011;9645;51.448;6.260;2023-05-19T10:17:39;9.50;;;3.10;;
19024;SDS011;9645;51.448;6.260;2023-05-19T10:20:07;9.20;;;3.00;;
19024;SDS011;9645;51.448;6.260;2023-05-19T10:22:36;4.20;;;2.57;;
19024;SDS011;9645;51.448;6.260;2023-05-19T10:25:04;4.90;;;2.90;;
19024;SDS011;9645;51.448;6.260;2023-05-19T10:27:33;8.40;;;3.67;;
19024;SDS011;9645;51.448;6.260;2023-05-19T10:30:04;6.63;;;3.20;;
19024;SDS011;9645;51.448;6.260;2023-05-19T10:32:39;3.63;;;2.87;;
19024;SDS011;9645;51.448;6.260;2023-05-19T10:35:15;4.47;;;2.47;;
19024;SDS011;9645;51.448;6.260;2023-05-19T10:38:05;7.00;;;3.10;;
19024;SDS011;9645;51.448;6.260;2023-05-19T10:40:42;3.37;;;2.80;;
19024;SDS011;9645;51.448;6.260;2023-05-19T10:43:22;6.83;;;3.20;;
19024;SDS011;9645;51.448;6.260;2023-05-19T10:45:56;4.27;;;2.60;;
19024;SDS011;9645;51.448;6.260;2023-05-19T10:48:24;7.90;;;3.00;;
19024;SDS011;9645;51.448;6.260;2023-05-19T10:50:52;6.23;;;2.87;;
19024;SDS011;9645;51.448;6.260;2023-05-19T10:53:39;3.97;;;2.83;;
19024;SDS011;9645;51.448;6.260;2023-05-19T10:56:10;6.40;;;2.70;;
19024;SDS011;9645;51.448;6.260;2023-05-19T10:58:48;6.23;;;3.43;;
19024;SDS011;9645;51.448;6.260;2023-05-19T11:01:16;9.43;;;3.23;;
19024;SDS011;9645;51.448;6.260;2023-05-19T11:03:49;7.77;;;3.00;;
19024;SDS011;9645;51.448;6.260;2023-05-19T11:06:18;5.13;;;3.60;;
19024;SDS011;9645;51.448;6.260;2023-05-19T11:08:46;5.53;;;2.30;;
19024;SDS011;9645;51.448;6.260;2023-05-19T11:11:17;6.63;;;3.10;;
19024;SDS011;9645;51.448;6.260;2023-05-19T11:13:46;6.43;;;3.03;;
19024;SDS011;9645;51.448;6.260;2023-05-19T11:16:17;7.87;;;2.57;;
19024;SDS011;9645;51.448;6.260;2023-05-19T11:18:50;3.70;;;2.40;;
19024;SDS011;9645;51.448;6.260;2023-05-19T11:21:19;10.37;;;2.83;;
19024;SDS011;9645;51.448;6.260;2023-05-19T11:23:46;10.30;;;3.23;;
19024;SDS011;9645;51.448;6.260;2023-05-19T11:26:14;4.10;;;2.83;;
19024;SDS011;9645;51.448;6.260;2023-05-19T11:28:40;4.30;;;2.73;;
19024;SDS011;9645;51.448;6.260;2023-05-19T11:31:08;6.33;;;2.80;;
19024;SDS011;9645;51.448;6.260;2023-05-19T11:33:36;8.27;;;2.47;;
19024;SDS011;9645;51.448;6.260;2023-05-19T11:36:05;11.60;;;2.97;;
19024;SDS011;9645;51.448;6.260;2023-05-19T11:38:34;6.17;;;3.20;;
19024;SDS011;9645;51.448;6.260;2023-05-19T11:41:01;4.20;;;2.50;;
19024;SDS011;9645;51.448;6.260;2023-05-19T11:43:29;5.57;;;3.13;;
19024;SDS011;9645;51.448;6.260;2023-05-19T11:45:56;6.17;;;2.87;;
19024;SDS011;9645;51.448;6.260;2023-05-19T11:48:23;5.17;;;3.10;;
19024;SDS011;9645;51.448;6.260;2023-05-19T11:50:51;4.97;;;3.27;;
19024;SDS011;9645;51.448;6.260;2023-05-19T11:53:20;8.57;;;3.30;;
19024;SDS011;9645;51.448;6.260;2023-05-19T11:55:48;6.20;;;3.43;;
19024;SDS011;9645;51.448;6.260;2023-05-19T11:58:14;7.30;;;3.50;;
19024;SDS011;9645;51.448;6.260;2023-05-19T12:00:42;11.00;;;3.00;;
19024;SDS011;9645;51.448;6.260;2023-05-19T12:03:11;8.20;;;3.33;;
19024;SDS011;9645;51.448;6.260;2023-05-19T12:05:39;9.10;;;3.47;;
19024;SDS011;9645;51.448;6.260;2023-05-19T12:08:09;8.23;;;3.40;;
19024;SDS011;9645;51.448;6.260;2023-05-19T12:10:37;8.00;;;3.40;;
19024;SDS011;9645;51.448;6.260;2023-05-19T12:13:05;8.80;;;3.10;;
19024;SDS011;9645;51.448;6.260;2023-05-19T12:15:33;3.40;;;2.70;;
19024;SDS011;9645;51.448;6.260;2023-05-19T12:18:00;6.37;;;2.97;;
19024;SDS011;9645;51.448;6.260;2023-05-19T12:20:28;7.90;;;3.57;;
19024;SDS011;9645;51.448;6.260;2023-05-19T12:22:57;3.43;;;2.60;;
19024;SDS011;9645;51.448;6.260;2023-05-19T12:25:25;5.60;;;3.50;;
19024;SDS011;9645;51.448;6.260;2023-05-19T12:27:57;5.33;;;2.90;;
19024;SDS011;9645;51.448;6.260;2023-05-19T12:30:25;7.20;;;3.23;;
19024;SDS011;9645;51.448;6.260;2023-05-19T12:32:53;8.87;;;3.40;;
19024;SDS011;9645;51.448;6.260;2023-05-19T12:35:24;12.83;;;3.50;;
19024;SDS011;9645;51.448;6.260;2023-05-19T12:37:51;6.73;;;2.90;;
19024;SDS011;9645;51.448;6.260;2023-05-19T12:40:19;6.03;;;2.93;;
19024;SDS011;9645;51.448;6.260;2023-05-19T12:42:48;3.87;;;2.97;;
19024;SDS011;9645;51.448;6.260;2023-05-19T12:45:20;4.83;;;2.93;;
19024;SDS011;9645;51.448;6.260;2023-05-19T12:47:50;4.00;;;2.90;;
19024;SDS011;9645;51.448;6.260;2023-05-19T12:50:17;6.37;;;3.33;;
19024;SDS011;9645;51.448;6.260;2023-05-19T12:52:45;12.10;;;3.90;;
19024;SDS011;9645;51.448;6.260;2023-05-19T12:55:13;9.17;;;3.20;;
19024;SDS011;9645;51.448;6.260;2023-05-19T12:57:41;11.23;;;3.30;;
19024;SDS011;9645;51.448;6.260;2023-05-19T13:00:13;7.10;;;3.30;;
19024;SDS011;9645;51.448;6.260;2023-05-19T13:02:59;9.70;;;3.53;;
19024;SDS011;9645;51.448;6.260;2023-05-19T13:05:29;3.70;;;2.90;;
19024;SDS011;9645;51.448;6.260;2023-05-19T13:07:57;5.57;;;3.00;;
19024;SDS011;9645;51.448;6.260;2023-05-19T13:10:26;5.23;;;2.83;;
19024;SDS011;9645;51.448;6.260;2023-05-19T13:12:54;4.50;;;2.63;;
19024;SDS011;9645;51.448;6.260;2023-05-19T13:15:21;8.73;;;3.13;;
19024;SDS011;9645;51.448;6.260;2023-05-19T13:17:50;4.67;;;2.90;;
19024;SDS011;9645;51.448;6.260;2023-05-19T13:20:19;9.90;;;3.17;;
19024;SDS011;9645;51.448;6.260;2023-05-19T13:22:47;6.30;;;2.40;;
19024;SDS011;9645;51.448;6.260;2023-05-19T13:25:14;5.80;;;3.27;;
19024;SDS011;9645;51.448;6.260;2023-05-19T13:27:41;5.40;;;2.30;;
19024;SDS011;9645;51.448;6.260;2023-05-19T13:30:10;2.87;;;2.53;;
19024;SDS011;9645;51.448;6.260;2023-05-19T13:32:37;6.40;;;2.60;;
19024;SDS011;9645;51.448;6.260;2023-05-19T13:35:05;3.20;;;2.50;;
19024;SDS011;9645;51.448;6.260;2023-05-19T13:37:34;3.73;;;3.00;;
19024;SDS011;9645;51.448;6.260;2023-05-19T13:40:01;8.53;;;3.40;;
19024;SDS011;9645;51.448;6.260;2023-05-19T13:42:29;6.07;;;3.00;;
19024;SDS011;9645;51.448;6.260;2023-05-19T13:44:57;6.50;;;3.33;;
19024;SDS011;9645;51.448;6.260;2023-05-19T13:47:24;10.03;;;2.40;;
19024;SDS011;9645;51.448;6.260;2023-05-19T13:49:51;3.30;;;2.83;;
19024;SDS011;9645;51.448;6.260;2023-05-19T13:52:19;10.60;;;3.10;;
19024;SDS011;9645;51.448;6.260;2023-05-19T13:54:48;7.00;;;2.40;;
19024;SDS011;9645;51.448;6.260;2023-05-19T13:57:18;6.47;;;2.70;;
19024;SDS011;9645;51.448;6.260;2023-05-19T13:59:46;7.87;;;3.10;;
19024;SDS011;9645;51.448;6.260;2023-05-19T14:02:13;7.10;;;2.90;;
19024;SDS011;9645;51.448;6.260;2023-05-19T14:04:40;5.67;;;2.80;;
19024;SDS011;9645;51.448;6.260;2023-05-19T14:07:07;6.10;;;3.40;;
19024;SDS011;9645;51.448;6.260;2023-05-19T14:09:34;12.80;;;3.33;;
19024;SDS011;9645;51.448;6.260;2023-05-19T14:12:03;10.07;;;3.33;;
19024;SDS011;9645;51.448;6.260;2023-05-19T14:14:31;8.47;;;3.40;;
19024;SDS011;9645;51.448;6.260;2023-05-19T14:17:00;9.47;;;3.00;;
19024;SDS011;9645;51.448;6.260;2023-05-19T14:19:27;5.80;;;2.80;;
19024;SDS011;9645;51.448;6.260;2023-05-19T14:21:54;10.17;;;3.73;;
19024;SDS011;9645;51.448;6.260;2023-05-19T14:24:21;4.90;;;2.63;;
19024;SDS011;9645;51.448;6.260;2023-05-19T14:26:49;3.80;;;2.80;;
19024;SDS011;9645;51.448;6.260;2023-05-19T14:29:20;4.83;;;3.30;;
19024;SDS011;9645;51.448;6.260;2023-05-19T14:31:47;11.73;;;3.03;;
19024;SDS011;9645;51.448;6.260;2023-05-19T14:34:14;3.83;;;2.83;;
19024;SDS011;9645;51.448;6.260;2023-05-19T14:36:44;6.70;;;2.67;;
19024;SDS011;9645;51.448;6.260;2023-05-19T14:39:12;7.10;;;3.60;;
19024;SDS011;9645;51.448;6.260;2023-05-19T14:41:39;8.33;;;2.50;;
19024;SDS011;9645;51.448;6.260;2023-05-19T14:44:06;5.27;;;3.33;;
19024;SDS011;9645;51.448;6.260;2023-05-19T14:46:34;4.60;;;2.60;;
19024;SDS011;9645;51.448;6.260;2023-05-19T14:49:01;6.33;;;2.30;;
19024;SDS011;9645;51.448;6.260;2023-05-19T14:51:30;5.30;;;3.47;;
19024;SDS011;9645;51.448;6.260;2023-05-19T14:53:57;4.40;;;2.97;;
19024;SDS011;9645;51.448;6.260;2023-05-19T14:56:26;6.80;;;3.07;;
19024;SDS011;9645;51.448;6.260;2023-05-19T14:58:53;9.30;;;3.03;;
19024;SDS011;9645;51.448;6.260;2023-05-19T15:01:20;8.53;;;2.80;;
19024;SDS011;9645;51.448;6.260;2023-05-19T15:03:48;10.70;;;2.93;;
19024;SDS011;9645;51.448;6.260;2023-05-19T15:06:15;3.37;;;2.37;;
19024;SDS011;9645;51.448;6.260;2023-05-19T15:08:42;2.77;;;2.20;;